Time;durP1;ratioP1;P1;durP2;ratioP2;P2;SDS_P1;SDS_P2;PMS_P1;PMS_P2;Temp;Humidity;BMP_temperature;BMP_pressure;BME280_temperature;BME280_humidity;BME280_pressure;Samples;Min_cycle;Max_cycle;Signal;HPM_P1;HPM_P2
2022/11/14 00:00:50;;;;;;;14.83;8.87;;;4.60;99.90;;;;;;5112386;28;20447;-67
2022/11/14 00:03:16;;;;;;;14.50;9.13;;;4.50;99.90;;;;;;5113352;28;20506;-68
2022/11/14 00:05:45;;;;;;;14.37;8.83;;;4.50;99.90;;;;;;5102171;28;20487;-68
2022/11/14 00:08:17;;;;;;;12.23;8.80;;;4.50;99.90;;;;;;5092925;28;20452;-68
2022/11/14 00:10:47;;;;;;;12.97;8.63;;;4.50;99.90;;;;;;5107436;28;20449;-68
2022/11/14 00:13:15;;;;;;;12.80;9.13;;;4.40;99.90;;;;;;5113271;28;21014;-68
2022/11/14 00:15:41;;;;;;;12.57;8.83;;;4.40;99.90;;;;;;5112938;28;20457;-67
2022/11/14 00:18:08;;;;;;;13.03;8.67;;;4.40;99.90;;;;;;5093972;28;20462;-68
2022/11/14 00:20:35;;;;;;;12.80;9.07;;;4.40;99.90;;;;;;5101335;28;20978;-68
2022/11/14 00:23:02;;;;;;;13.47;8.80;;;4.40;99.90;;;;;;5111881;28;20481;-67
2022/11/14 00:25:31;;;;;;;12.50;8.57;;;4.40;99.90;;;;;;5100185;28;20479;-67
2022/11/14 00:27:58;;;;;;;15.87;8.80;;;4.30;99.90;;;;;;5092428;28;20454;-67
2022/11/14 00:30:25;;;;;;;11.07;8.63;;;4.30;99.90;;;;;;5104524;28;20482;-68
2022/11/14 00:32:51;;;;;;;11.07;8.40;;;4.30;99.90;;;;;;5112870;28;20470;-67
2022/11/14 00:35:18;;;;;;;11.13;8.17;;;4.20;99.90;;;;;;5113204;28;20855;-68
2022/11/14 00:37:45;;;;;;;13.50;9.10;;;4.20;99.90;;;;;;5097012;28;20463;-68
2022/11/14 00:40:13;;;;;;;13.23;8.67;;;4.20;99.90;;;;;;5093465;28;20447;-68
2022/11/14 00:42:41;;;;;;;14.83;8.60;;;4.10;99.90;;;;;;5092390;28;20467;-68
2022/11/14 00:45:09;;;;;;;13.33;9.40;;;4.10;99.90;;;;;;5092345;28;20488;-68
2022/11/14 00:47:36;;;;;;;12.27;9.30;;;4.10;99.90;;;;;;5092228;28;20986;-67
2022/11/14 00:50:03;;;;;;;14.10;9.17;;;4.10;99.90;;;;;;5101614;28;20445;-68
2022/11/14 00:52:30;;;;;;;10.13;7.90;;;4.10;99.90;;;;;;5100731;28;20481;-68
2022/11/14 00:54:56;;;;;;;14.63;9.60;;;4.00;99.90;;;;;;5094784;28;20461;-68
2022/11/14 00:57:23;;;;;;;13.30;9.20;;;4.00;99.90;;;;;;5092160;28;20453;-67
2022/11/14 00:59:54;;;;;;;16.63;8.73;;;4.00;99.90;;;;;;5099615;28;20457;-68
2022/11/14 01:02:21;;;;;;;11.87;8.20;;;4.10;99.90;;;;;;5111248;28;20448;-68
2022/11/14 01:04:47;;;;;;;14.13;8.73;;;4.00;99.90;;;;;;5108939;28;20479;-68
2022/11/14 01:07:14;;;;;;;14.73;9.40;;;4.00;99.90;;;;;;5091945;28;20450;-68
2022/11/14 01:09:41;;;;;;;13.33;9.37;;;4.00;99.90;;;;;;5098826;28;20824;-68
2022/11/14 01:12:07;;;;;;;18.80;8.93;;;4.00;99.90;;;;;;5103465;28;20885;-68
2022/11/14 01:14:34;;;;;;;13.07;9.27;;;4.00;99.90;;;;;;5092130;28;20446;-68
2022/11/14 01:17:02;;;;;;;13.10;9.40;;;4.00;99.90;;;;;;5091562;28;20457;-68
2022/11/14 01:19:29;;;;;;;14.43;9.63;;;4.00;99.90;;;;;;5095524;28;20476;-68
2022/11/14 01:21:55;;;;;;;13.30;9.00;;;4.00;99.90;;;;;;5101047;28;20454;-68
2022/11/14 01:24:22;;;;;;;16.37;9.33;;;4.00;99.90;;;;;;5093817;28;20475;-68
2022/11/14 01:26:48;;;;;;;10.80;8.03;;;3.90;99.90;;;;;;5092354;28;20451;-68
2022/11/14 01:29:15;;;;;;;12.77;9.50;;;3.90;99.90;;;;;;5091458;28;20523;-68
2022/11/14 01:31:42;;;;;;;12.77;9.03;;;3.90;99.90;;;;;;5094934;28;20451;-68
2022/11/14 01:34:10;;;;;;;14.90;9.40;;;3.80;99.90;;;;;;5112356;28;20472;-68
2022/11/14 01:36:36;;;;;;;14.80;9.13;;;3.80;99.90;;;;;;5098153;28;20483;-68
2022/11/14 01:39:03;;;;;;;13.30;9.53;;;3.80;99.90;;;;;;5091412;28;20497;-68
2022/11/14 01:41:30;;;;;;;12.07;8.90;;;3.70;99.90;;;;;;5091811;28;20451;-68
2022/11/14 01:43:57;;;;;;;17.53;10.70;;;3.60;99.90;;;;;;5091375;28;20476;-68
2022/11/14 01:46:26;;;;;;;13.30;9.53;;;3.60;99.90;;;;;;5091343;28;21002;-68
2022/11/14 01:48:57;;;;;;;15.23;9.23;;;3.60;99.90;;;;;;5095161;28;20493;-68
2022/11/14 01:51:28;;;;;;;14.53;9.40;;;3.60;99.90;;;;;;5106547;28;20511;-68
2022/11/14 01:53:58;;;;;;;14.53;8.87;;;3.60;99.90;;;;;;5093645;28;20475;-68
2022/11/14 01:56:32;;;;;;;14.27;9.30;;;3.60;99.90;;;;;;5091179;28;20458;-68
2022/11/14 01:59:02;;;;;;;14.13;9.20;;;3.60;99.90;;;;;;5091919;28;20457;-68
2022/11/14 02:01:32;;;;;;;13.53;9.50;;;3.60;99.90;;;;;;5109334;28;20452;-68
2022/11/14 02:04:00;;;;;;;16.80;9.33;;;3.60;99.90;;;;;;5091375;28;20538;-68
2022/11/14 02:06:30;;;;;;;14.47;10.37;;;3.50;99.90;;;;;;5091616;28;20455;-68
2022/11/14 02:08:59;;;;;;;14.17;9.33;;;3.50;99.90;;;;;;5107630;28;20904;-68
2022/11/14 02:11:29;;;;;;;14.10;9.60;;;3.50;99.90;;;;;;5106987;28;20453;-68
2022/11/14 02:13:57;;;;;;;13.10;9.73;;;3.40;99.90;;;;;;5095294;28;20518;-68
2022/11/14 02:16:23;;;;;;;14.03;9.43;;;3.40;99.90;;;;;;5095330;28;20454;-68
2022/11/14 02:18:50;;;;;;;14.93;9.90;;;3.40;99.90;;;;;;5095087;28;20794;-68
2022/11/14 02:21:18;;;;;;;16.73;10.37;;;3.40;99.90;;;;;;5107245;28;20457;-68
2022/11/14 02:23:45;;;;;;;16.23;10.53;;;3.40;99.90;;;;;;5095282;28;20476;-68
2022/11/14 02:26:11;;;;;;;15.93;10.23;;;3.40;99.90;;;;;;5106803;28;20482;-68
2022/11/14 02:28:38;;;;;;;16.13;10.93;;;3.30;99.90;;;;;;5095020;28;20452;-68
2022/11/14 02:31:05;;;;;;;13.67;9.50;;;3.30;99.90;;;;;;5094902;28;20464;-68
2022/11/14 02:33:31;;;;;;;20.97;10.73;;;3.30;99.90;;;;;;5094602;28;20872;-68
2022/11/14 02:35:58;;;;;;;16.40;10.20;;;3.20;99.90;;;;;;5095238;28;20450;-68
2022/11/14 02:38:26;;;;;;;14.33;9.53;;;3.20;99.90;;;;;;5094853;28;20474;-68
2022/11/14 02:40:53;;;;;;;13.77;9.93;;;3.20;99.90;;;;;;5094781;28;21000;-68
2022/11/14 02:43:19;;;;;;;16.17;10.60;;;3.20;99.90;;;;;;5094601;28;20472;-68
2022/11/14 02:45:46;;;;;;;16.20;10.57;;;3.20;99.90;;;;;;5094356;28;20482;-68
2022/11/14 02:48:13;;;;;;;15.50;10.60;;;3.20;99.90;;;;;;5094289;28;20528;-68
2022/11/14 02:50:40;;;;;;;20.40;10.23;;;3.20;99.90;;;;;;5094699;28;20490;-68
2022/11/14 02:53:06;;;;;;;16.67;10.97;;;3.20;99.90;;;;;;5094374;28;20990;-68
2022/11/14 02:55:34;;;;;;;18.90;10.50;;;3.20;99.90;;;;;;5115042;28;20454;-68
2022/11/14 02:58:01;;;;;;;18.67;11.30;;;3.20;99.90;;;;;;5095771;27;20450;-68
2022/11/14 03:00:28;;;;;;;16.97;11.43;;;3.10;99.90;;;;;;5094448;28;20456;-68
2022/11/14 03:02:54;;;;;;;20.80;10.63;;;3.10;99.90;;;;;;5086307;28;20471;-68
2022/11/14 03:05:21;;;;;;;17.10;11.50;;;3.10;99.90;;;;;;5094235;28;20482;-68
2022/11/14 03:07:48;;;;;;;16.20;10.10;;;3.00;99.90;;;;;;5094289;28;20948;-68
2022/11/14 03:10:15;;;;;;;19.90;10.83;;;3.00;99.90;;;;;;5094501;28;20457;-69
2022/11/14 03:12:43;;;;;;;16.03;10.77;;;3.00;99.90;;;;;;5103748;28;20479;-68
2022/11/14 03:15:10;;;;;;;16.10;10.23;;;3.00;99.90;;;;;;5093798;28;20596;-68
2022/11/14 03:17:37;;;;;;;16.87;10.37;;;3.00;99.90;;;;;;5093897;28;20539;-68
2022/11/14 03:20:05;;;;;;;13.93;9.70;;;3.00;99.90;;;;;;5099681;28;20457;-68
2022/11/14 03:22:31;;;;;;;17.00;11.37;;;3.10;99.90;;;;;;5113520;27;20958;-68
2022/11/14 03:24:58;;;;;;;14.50;10.77;;;3.00;99.90;;;;;;5109406;28;20486;-68
2022/11/14 03:27:25;;;;;;;17.43;9.60;;;3.00;99.90;;;;;;5093440;28;20970;-68
2022/11/14 03:29:53;;;;;;;15.07;10.07;;;3.00;99.90;;;;;;5097592;28;20453;-68
2022/11/14 03:32:19;;;;;;;15.90;9.90;;;3.00;99.90;;;;;;5113595;28;20450;-68
2022/11/14 03:34:46;;;;;;;15.73;10.70;;;3.00;99.90;;;;;;5114036;28;20631;-68
2022/11/14 03:37:13;;;;;;;16.43;10.77;;;3.00;99.90;;;;;;5103078;28;20532;-68
2022/11/14 03:39:39;;;;;;;15.27;10.03;;;2.90;99.90;;;;;;5093463;28;20458;-68
2022/11/14 03:42:06;;;;;;;17.80;11.97;;;2.90;99.90;;;;;;5093317;28;20455;-68
2022/11/14 03:44:33;;;;;;;16.70;10.97;;;3.00;99.90;;;;;;5093650;28;20449;-68
2022/11/14 03:47:01;;;;;;;15.33;11.07;;;2.90;99.90;;;;;;5093588;28;20813;-68
2022/11/14 03:49:28;;;;;;;16.90;10.70;;;2.90;99.90;;;;;;5093477;28;20455;-68
2022/11/14 03:51:54;;;;;;;17.33;10.70;;;2.90;99.90;;;;;;5108134;28;20501;-68
2022/11/14 03:54:21;;;;;;;18.23;11.40;;;2.90;99.90;;;;;;5096268;28;20471;-68
2022/11/14 03:56:48;;;;;;;16.30;10.90;;;2.90;99.90;;;;;;5093052;28;20462;-68
2022/11/14 03:59:14;;;;;;;15.37;10.50;;;2.90;99.90;;;;;;5109834;28;20553;-68
2022/11/14 04:01:41;;;;;;;14.63;10.87;;;2.80;99.90;;;;;;5112824;27;20475;-68
2022/11/14 04:04:11;;;;;;;17.07;10.80;;;2.80;99.90;;;;;;5108369;28;20472;-68
2022/11/14 04:06:38;;;;;;;15.07;10.40;;;2.80;99.90;;;;;;5092628;28;20953;-68
2022/11/14 04:09:06;;;;;;;17.17;11.10;;;2.80;99.90;;;;;;5092646;28;20454;-68
2022/11/14 04:11:32;;;;;;;17.63;11.33;;;2.80;99.90;;;;;;5108153;28;20452;-68
2022/11/14 04:13:59;;;;;;;20.10;10.93;;;2.80;99.90;;;;;;5107246;28;20470;-67
2022/11/14 04:16:26;;;;;;;15.20;10.07;;;2.70;99.90;;;;;;5092619;28;20445;-68
2022/11/14 04:18:52;;;;;;;15.53;10.60;;;2.60;99.90;;;;;;5092884;28;20449;-68
2022/11/14 04:21:20;;;;;;;15.47;9.93;;;2.60;99.90;;;;;;5107531;28;20456;-68
2022/11/14 04:23:47;;;;;;;26.23;10.97;;;2.50;99.90;;;;;;5113535;28;20499;-68
2022/11/14 04:26:14;;;;;;;19.83;12.33;;;2.50;99.90;;;;;;5100354;28;20540;-68
2022/11/14 04:28:40;;;;;;;14.00;10.67;;;2.40;99.90;;;;;;5092711;28;20448;-68
2022/11/14 04:31:07;;;;;;;16.63;11.17;;;2.40;99.90;;;;;;5092386;28;20458;-68
2022/11/14 04:33:34;;;;;;;15.30;10.40;;;2.40;99.90;;;;;;5092346;28;20474;-67
2022/11/14 04:36:00;;;;;;;16.33;10.20;;;2.40;99.90;;;;;;5096578;28;20454;-67
2022/11/14 04:38:28;;;;;;;14.57;9.70;;;2.30;99.90;;;;;;5092414;28;20451;-68
2022/11/14 04:40:55;;;;;;;18.80;12.10;;;2.40;99.90;;;;;;5102132;28;20449;-68
2022/11/14 04:43:22;;;;;;;15.70;11.70;;;2.30;99.90;;;;;;5105747;28;20471;-68
2022/11/14 04:45:48;;;;;;;19.30;10.77;;;2.30;99.90;;;;;;5090629;28;20892;-67
2022/11/14 04:48:15;;;;;;;14.10;10.20;;;2.30;99.90;;;;;;5090158;28;20456;-68
2022/11/14 04:50:42;;;;;;;16.30;10.93;;;2.40;99.90;;;;;;5099165;28;20459;-67
2022/11/14 04:53:09;;;;;;;19.50;10.63;;;2.30;99.90;;;;;;5092386;28;20477;-68
2022/11/14 04:55:37;;;;;;;16.37;11.33;;;2.40;99.90;;;;;;5092037;28;20463;-67
2022/11/14 04:58:03;;;;;;;21.77;12.00;;;2.40;99.90;;;;;;5092254;28;20836;-67
2022/11/14 05:00:30;;;;;;;20.90;10.93;;;2.40;99.90;;;;;;5095461;28;20477;-68
2022/11/14 05:02:59;;;;;;;18.07;11.70;;;2.40;99.90;;;;;;5097657;28;20469;-67
2022/11/14 05:05:25;;;;;;;19.10;11.13;;;2.40;99.90;;;;;;5089936;28;20567;-68
2022/11/14 05:07:54;;;;;;;17.20;10.77;;;2.40;99.90;;;;;;5090415;28;20454;-68
2022/11/14 05:10:21;;;;;;;17.40;10.90;;;2.40;99.90;;;;;;5095241;28;20497;-68
2022/11/14 05:12:52;;;;;;;19.60;11.37;;;2.40;99.90;;;;;;5093334;28;20472;-68
2022/11/14 05:15:19;;;;;;;21.50;11.53;;;2.20;99.90;;;;;;5074588;28;20449;-68
2022/11/14 05:17:46;;;;;;;16.07;10.83;;;2.40;99.90;;;;;;5091513;28;20456;-68
2022/11/14 05:20:13;;;;;;;18.33;10.00;;;2.30;99.90;;;;;;5094326;28;20444;-68
2022/11/14 05:22:39;;;;;;;14.90;10.10;;;2.20;99.90;;;;;;5091594;28;20475;-68
2022/11/14 05:25:07;;;;;;;18.83;10.73;;;2.10;99.90;;;;;;5089199;28;20946;-68
2022/11/14 05:27:34;;;;;;;18.47;10.93;;;2.10;99.90;;;;;;5090005;28;20456;-68
2022/11/14 05:30:02;;;;;;;16.30;9.90;;;2.00;99.90;;;;;;5107199;28;20454;-68
2022/11/14 05:32:29;;;;;;;16.13;9.93;;;2.00;99.90;;;;;;5088793;28;20467;-68
2022/11/14 05:34:55;;;;;;;19.70;10.00;;;2.00;99.90;;;;;;5089870;28;20451;-68
2022/11/14 05:37:22;;;;;;;15.70;10.43;;;2.00;99.90;;;;;;5083565;28;20992;-68
2022/11/14 05:39:49;;;;;;;18.10;10.63;;;2.00;99.90;;;;;;5093543;28;20993;-68
2022/11/14 05:42:15;;;;;;;18.33;10.47;;;2.00;99.90;;;;;;5087398;28;20878;-68
2022/11/14 05:44:42;;;;;;;18.17;10.40;;;2.00;99.90;;;;;;5093662;28;20450;-68
2022/11/14 05:47:26;;;;;;;14.90;9.37;;;2.00;99.90;;;;;;5098572;28;20482;-68
2022/11/14 05:49:53;;;;;;;23.33;10.43;;;2.00;99.90;;;;;;5089491;28;20456;-68
2022/11/14 05:52:20;;;;;;;17.97;10.93;;;1.90;99.90;;;;;;5091566;28;20455;-69
2022/11/14 05:54:46;;;;;;;17.97;10.30;;;1.90;99.90;;;;;;5090416;28;20980;-69
2022/11/14 05:57:13;;;;;;;17.37;10.03;;;1.90;99.90;;;;;;5091783;28;20863;-68
2022/11/14 05:59:40;;;;;;;19.87;11.17;;;1.90;99.90;;;;;;5094815;28;20458;-68
2022/11/14 06:02:06;;;;;;;21.90;12.13;;;1.90;99.90;;;;;;5091179;28;20459;-69
2022/11/14 06:04:34;;;;;;;18.73;11.80;;;1.90;99.90;;;;;;5091321;28;20463;-69
2022/11/14 06:07:01;;;;;;;21.00;11.80;;;1.90;99.90;;;;;;5091003;28;20870;-69
2022/11/14 06:09:28;;;;;;;22.90;13.17;;;1.90;99.90;;;;;;5091132;28;20513;-68
2022/11/14 06:11:54;;;;;;;23.60;13.40;;;2.00;99.90;;;;;;5090872;28;20448;-68
2022/11/14 06:14:21;;;;;;;19.60;12.63;;;2.00;99.90;;;;;;5091263;28;20463;-68
2022/11/14 06:16:47;;;;;;;26.67;13.97;;;1.90;99.90;;;;;;5091138;28;20521;-68
2022/11/14 06:19:14;;;;;;;30.30;13.63;;;2.00;99.90;;;;;;5090820;28;20443;-69
2022/11/14 06:21:42;;;;;;;20.00;13.33;;;2.00;99.90;;;;;;5091175;28;20589;-69
2022/11/14 06:24:09;;;;;;;22.90;13.80;;;2.10;99.90;;;;;;5090229;28;20464;-70
2022/11/14 06:26:36;;;;;;;25.63;14.73;;;2.10;99.90;;;;;;5090592;28;20482;-69
2022/11/14 06:29:02;;;;;;;22.13;13.00;;;2.20;99.90;;;;;;5090866;28;20821;-69
2022/11/14 06:31:29;;;;;;;23.30;13.80;;;2.20;99.90;;;;;;5090515;28;20445;-68
2022/11/14 06:33:56;;;;;;;28.93;13.90;;;2.30;99.90;;;;;;5084899;28;20472;-68
2022/11/14 06:36:23;;;;;;;21.97;13.27;;;2.40;99.90;;;;;;5086958;28;20535;-69
2022/11/14 06:38:51;;;;;;;30.43;14.10;;;2.50;99.90;;;;;;5086620;28;20445;-68
2022/11/14 06:41:19;;;;;;;23.23;15.43;;;2.50;99.90;;;;;;5086546;28;21143;-68
2022/11/14 06:43:48;;;;;;;29.37;14.40;;;2.60;99.90;;;;;;5086140;28;20469;-68
2022/11/14 06:46:16;;;;;;;22.63;13.13;;;2.70;99.90;;;;;;5086722;28;20483;-67
2022/11/14 06:48:44;;;;;;;20.30;14.10;;;2.70;99.90;;;;;;5087169;28;20443;-68
2022/11/14 06:51:12;;;;;;;20.57;12.90;;;2.70;99.90;;;;;;5086808;28;20826;-68
2022/11/14 06:53:39;;;;;;;26.03;14.93;;;2.80;99.90;;;;;;5089247;28;20887;-68
2022/11/14 06:56:09;;;;;;;22.07;13.27;;;2.90;99.90;;;;;;5091115;28;20460;-68
2022/11/14 06:58:37;;;;;;;25.70;15.00;;;3.00;99.90;;;;;;5089716;28;20455;-68
2022/11/14 07:01:05;;;;;;;25.50;14.60;;;3.00;99.90;;;;;;5090488;28;20845;-68
2022/11/14 07:03:31;;;;;;;26.47;13.77;;;3.10;99.90;;;;;;5090513;28;20490;-68
2022/11/14 07:05:58;;;;;;;24.40;14.43;;;3.10;99.90;;;;;;5090650;28;20517;-68
2022/11/14 07:08:25;;;;;;;28.30;14.97;;;3.20;99.90;;;;;;5090400;28;20453;-68
2022/11/14 07:10:52;;;;;;;20.77;13.17;;;3.20;99.90;;;;;;5090271;28;20448;-68
2022/11/14 07:13:20;;;;;;;21.57;12.03;;;3.20;99.90;;;;;;5089559;28;20829;-68
2022/11/14 07:15:51;;;;;;;29.90;13.90;;;3.20;99.90;;;;;;5089227;28;20451;-69
2022/11/14 07:18:17;;;;;;;26.50;14.70;;;3.10;99.90;;;;;;5090210;28;20483;-68
2022/11/14 07:20:44;;;;;;;22.80;13.80;;;3.10;99.90;;;;;;5089785;28;20594;-67
2022/11/14 07:23:11;;;;;;;26.70;13.53;;;3.10;99.90;;;;;;5090259;28;21271;-68
2022/11/14 07:25:37;;;;;;;27.53;14.70;;;3.10;99.90;;;;;;5090411;28;20448;-68
2022/11/14 07:28:04;;;;;;;37.83;15.70;;;3.20;99.90;;;;;;5089964;28;20536;-68
2022/11/14 07:30:33;;;;;;;31.47;16.60;;;3.20;99.90;;;;;;5088418;28;20465;-68
2022/11/14 07:33:00;;;;;;;35.57;16.87;;;3.20;99.90;;;;;;5089837;28;20469;-68
2022/11/14 07:35:26;;;;;;;29.73;16.43;;;3.30;99.90;;;;;;5090519;28;20453;-67
2022/11/14 07:37:53;;;;;;;34.30;16.93;;;3.40;99.90;;;;;;5090020;28;20532;-67
2022/11/14 07:40:20;;;;;;;37.20;17.73;;;3.50;99.90;;;;;;5089625;28;20500;-68
2022/11/14 07:42:47;;;;;;;39.00;17.97;;;3.60;99.90;;;;;;5088874;28;21065;-69
2022/11/14 07:45:14;;;;;;;36.27;17.47;;;3.60;99.90;;;;;;5089573;28;21719;-69
2022/11/14 07:47:42;;;;;;;35.60;17.80;;;3.70;99.90;;;;;;5090006;28;20516;-67
2022/11/14 07:50:09;;;;;;;30.33;16.50;;;3.80;99.90;;;;;;5088251;28;20450;-69
2022/11/14 07:52:36;;;;;;;32.43;17.93;;;3.90;99.90;;;;;;5088228;28;20475;-69
2022/11/14 07:55:03;;;;;;;33.57;18.17;;;3.80;99.90;;;;;;5088015;28;20466;-69
2022/11/14 07:57:30;;;;;;;37.10;18.53;;;3.80;99.90;;;;;;5087842;28;20451;-68
2022/11/14 07:59:56;;;;;;;34.50;18.77;;;3.80;99.90;;;;;;5087676;28;20447;-67
2022/11/14 08:02:23;;;;;;;44.33;21.27;;;3.90;99.90;;;;;;5088883;28;20850;-68
2022/11/14 08:04:51;;;;;;;50.77;22.67;;;3.90;99.90;;;;;;5086064;28;20461;-68
2022/11/14 08:07:18;;;;;;;43.03;22.83;;;4.00;99.90;;;;;;5088526;28;20482;-68
2022/11/14 08:09:44;;;;;;;39.17;21.13;;;3.90;99.90;;;;;;5089094;28;20442;-68
2022/11/14 08:12:11;;;;;;;41.20;18.87;;;4.00;99.90;;;;;;5088217;28;20721;-68
2022/11/14 08:14:37;;;;;;;37.27;17.30;;;3.90;99.90;;;;;;5089081;28;20450;-68
2022/11/14 08:17:05;;;;;;;38.57;18.33;;;4.00;99.90;;;;;;5089320;28;20435;-68
2022/11/14 08:19:31;;;;;;;36.47;18.27;;;3.90;99.90;;;;;;5089261;28;20482;-68
2022/11/14 08:21:59;;;;;;;36.47;18.10;;;3.90;99.90;;;;;;5089351;28;20448;-68
2022/11/14 08:24:26;;;;;;;33.97;19.00;;;3.90;99.90;;;;;;5089072;28;21000;-68
2022/11/14 08:26:53;;;;;;;40.60;20.17;;;4.00;99.90;;;;;;5089604;28;20478;-68
2022/11/14 08:29:20;;;;;;;38.27;20.13;;;4.00;99.90;;;;;;5088924;28;20452;-68
2022/11/14 08:31:47;;;;;;;39.50;19.10;;;4.10;99.90;;;;;;5088952;28;20451;-67
2022/11/14 08:34:13;;;;;;;36.50;18.93;;;4.20;99.90;;;;;;5089067;28;20464;-68
2022/11/14 08:36:40;;;;;;;37.03;18.80;;;4.20;99.90;;;;;;5089037;28;20957;-68
2022/11/14 08:39:08;;;;;;;38.30;19.53;;;4.30;99.90;;;;;;5089357;28;20455;-68
2022/11/14 08:41:35;;;;;;;40.23;20.00;;;4.30;99.90;;;;;;5088399;28;20818;-68
2022/11/14 08:44:01;;;;;;;38.80;19.47;;;4.30;99.90;;;;;;5088190;28;20742;-68
2022/11/14 08:46:28;;;;;;;37.33;19.60;;;4.30;99.90;;;;;;5088899;28;20489;-68
2022/11/14 08:48:55;;;;;;;40.10;20.70;;;4.30;99.90;;;;;;5089082;28;20459;-68
2022/11/14 08:51:21;;;;;;;42.00;20.67;;;4.30;99.90;;;;;;5088868;28;20843;-68
2022/11/14 08:53:50;;;;;;;41.93;20.60;;;4.40;99.90;;;;;;5088651;28;20462;-68
2022/11/14 08:56:18;;;;;;;41.50;20.20;;;4.40;99.90;;;;;;5088154;28;20462;-68
2022/11/14 08:58:44;;;;;;;42.50;21.03;;;4.40;99.90;;;;;;5088557;28;20474;-68
2022/11/14 09:01:11;;;;;;;41.00;20.80;;;4.40;99.90;;;;;;5085435;28;20951;-68
2022/11/14 09:03:38;;;;;;;40.00;19.70;;;4.50;99.90;;;;;;5088237;28;20541;-67
2022/11/14 09:06:05;;;;;;;40.90;19.90;;;4.50;99.90;;;;;;5088006;28;20466;-67
2022/11/14 09:08:32;;;;;;;38.70;20.77;;;4.60;99.90;;;;;;5087576;28;20454;-67
2022/11/14 09:11:00;;;;;;;42.67;20.90;;;4.70;99.90;;;;;;5086374;28;20509;-67
2022/11/14 09:13:28;;;;;;;41.47;19.53;;;4.70;99.90;;;;;;5085972;28;20484;-66
2022/11/14 09:15:55;;;;;;;43.57;20.87;;;4.70;99.90;;;;;;5087547;28;20503;-67
2022/11/14 09:18:21;;;;;;;43.90;21.53;;;4.70;99.90;;;;;;5087962;28;20826;-67
2022/11/14 09:20:48;;;;;;;40.87;20.53;;;4.70;99.90;;;;;;5085668;28;20440;-67
2022/11/14 09:23:15;;;;;;;43.57;21.23;;;4.80;99.90;;;;;;5086957;28;20966;-66
2022/11/14 09:25:41;;;;;;;36.97;19.40;;;4.80;99.90;;;;;;5086875;28;20459;-68
2022/11/14 09:28:09;;;;;;;37.83;20.20;;;4.80;99.90;;;;;;5086754;28;20490;-67
2022/11/14 09:30:39;;;;;;;38.60;20.90;;;4.80;99.90;;;;;;5086559;28;20457;-67
2022/11/14 09:33:05;;;;;;;38.57;21.07;;;4.80;99.90;;;;;;5087893;28;20536;-67
2022/11/14 09:35:32;;;;;;;39.17;20.10;;;4.80;99.90;;;;;;5088275;28;20460;-67
2022/11/14 09:38:00;;;;;;;40.63;22.17;;;4.80;99.90;;;;;;5087346;28;20831;-67
2022/11/14 09:40:27;;;;;;;39.70;21.13;;;4.90;99.90;;;;;;5086465;28;20576;-67
2022/11/14 09:43:17;;;;;;;45.50;21.67;;;4.90;99.90;;;;;;5086790;28;20467;-67
2022/11/14 09:45:50;;;;;;;43.47;22.53;;;5.00;99.90;;;;;;5086098;28;20507;-67
2022/11/14 09:48:21;;;;;;;40.67;20.83;;;5.10;99.90;;;;;;5086024;28;21988;-67
2022/11/14 09:50:58;;;;;;;39.27;20.47;;;5.10;99.90;;;;;;5087018;28;21179;-67
2022/11/14 09:53:31;;;;;;;40.50;20.80;;;5.20;99.90;;;;;;5087136;28;20467;-67
2022/11/14 09:55:59;;;;;;;41.50;22.57;;;5.30;99.90;;;;;;5086515;28;20966;-69
2022/11/14 09:58:27;;;;;;;39.73;21.03;;;5.30;99.90;;;;;;5086691;28;20455;-67
2022/11/14 10:01:01;;;;;;;42.40;20.73;;;5.30;99.90;;;;;;5086345;28;20447;-67
2022/11/14 10:03:41;;;;;;;41.83;21.53;;;5.40;99.90;;;;;;5086544;28;20484;-68
2022/11/14 10:06:21;;;;;;;35.90;20.33;;;5.40;99.90;;;;;;5086601;28;20458;-69
2022/11/14 10:09:13;;;;;;;39.33;21.60;;;5.40;99.90;;;;;;5087191;28;20454;-68
2022/11/14 10:11:44;;;;;;;42.43;20.60;;;5.50;99.90;;;;;;5085665;28;20439;-68
2022/11/14 10:14:45;;;;;;;41.37;20.53;;;5.50;99.90;;;;;;5087203;28;20592;-68
2022/11/14 10:17:27;;;;;;;47.50;23.77;;;5.60;99.90;;;;;;5086290;28;20435;-68
2022/11/14 10:20:00;;;;;;;46.10;21.07;;;5.60;99.90;;;;;;5086956;28;20453;-68
2022/11/14 10:22:43;;;;;;;42.33;20.90;;;5.60;99.90;;;;;;5086055;28;20452;-68
2022/11/14 10:25:32;;;;;;;36.87;20.00;;;5.60;99.90;;;;;;5086880;28;20480;-68
2022/11/14 10:28:16;;;;;;;40.80;20.90;;;5.60;99.90;;;;;;5084341;28;20490;-68
2022/11/14 10:30:56;;;;;;;37.40;19.60;;;5.60;99.90;;;;;;5090363;28;20457;-68
2022/11/14 10:33:35;;;;;;;40.00;19.20;;;5.70;99.90;;;;;;5090313;28;20465;-68
2022/11/14 10:36:11;;;;;;;36.00;18.97;;;5.70;99.90;;;;;;5090177;28;20883;-68
2022/11/14 10:38:45;;;;;;;35.00;18.07;;;5.70;99.90;;;;;;5089714;28;20470;-68
2022/11/14 10:41:12;;;;;;;33.03;18.00;;;5.80;99.90;;;;;;5088563;28;20455;-68
2022/11/14 10:43:43;;;;;;;32.23;17.67;;;5.90;99.90;;;;;;5089956;28;20846;-68
2022/11/14 10:46:14;;;;;;;33.17;17.60;;;6.00;99.90;;;;;;5088900;28;20454;-68
2022/11/14 10:48:45;;;;;;;29.03;16.23;;;6.10;99.90;;;;;;5089663;28;20483;-68
2022/11/14 10:51:19;;;;;;;31.73;15.60;;;6.10;99.90;;;;;;5090512;28;20465;-68
2022/11/14 10:53:53;;;;;;;31.80;17.23;;;6.20;99.90;;;;;;5089577;28;20471;-68
2022/11/14 10:56:20;;;;;;;35.30;19.10;;;6.20;99.90;;;;;;5090706;28;20461;-68
2022/11/14 10:58:47;;;;;;;27.47;15.43;;;6.30;99.90;;;;;;5089956;28;20455;-69
2022/11/14 11:01:34;;;;;;;30.87;16.50;;;6.30;99.90;;;;;;5088991;28;20452;-68
2022/11/14 11:04:25;;;;;;;32.93;15.63;;;6.40;99.90;;;;;;5089648;28;20521;-68
2022/11/14 11:06:53;;;;;;;29.20;16.27;;;6.40;99.90;;;;;;5088943;28;20538;-68
2022/11/14 11:12:08;;;;;;;31.60;16.00;;;6.50;99.90;;;;;;5089203;28;20504;-68
2022/11/14 11:14:35;;;;;;;26.50;15.00;;;6.50;99.90;;;;;;5089323;28;21020;-68
2022/11/14 11:17:17;;;;;;;28.33;16.03;;;6.60;99.90;;;;;;5089459;28;20443;-68
2022/11/14 11:19:46;;;;;;;30.50;16.70;;;6.60;99.90;;;;;;5088921;28;20461;-68
2022/11/14 11:22:35;;;;;;;29.37;16.67;;;6.70;99.90;;;;;;5089251;28;20530;-68
2022/11/14 11:25:02;;;;;;;31.97;15.73;;;6.90;99.90;;;;;;5089088;28;20459;-68
2022/11/14 11:27:29;;;;;;;26.07;15.20;;;7.10;99.90;;;;;;5089139;28;20471;-67
2022/11/14 11:30:15;;;;;;;31.47;15.63;;;7.20;99.90;;;;;;5089221;28;20452;-68
2022/11/14 11:32:41;;;;;;;29.60;16.13;;;7.30;99.90;;;;;;5088126;28;21013;-68
2022/11/14 11:35:12;;;;;;;23.40;14.13;;;7.30;99.90;;;;;;5089377;28;20868;-68
2022/11/14 11:37:44;;;;;;;23.40;14.97;;;7.30;99.90;;;;;;5088535;28;21087;-68
2022/11/14 11:40:17;;;;;;;24.87;14.40;;;7.30;99.90;;;;;;5088652;28;20505;-68
2022/11/14 11:42:49;;;;;;;24.63;15.47;;;7.30;99.90;;;;;;5089157;28;20477;-68
2022/11/14 11:45:18;;;;;;;26.47;15.40;;;7.30;99.90;;;;;;5088471;28;20457;-68
2022/11/14 11:47:50;;;;;;;29.90;15.63;;;7.30;99.90;;;;;;5089234;28;20486;-68
2022/11/14 11:50:20;;;;;;;30.37;16.17;;;7.40;99.90;;;;;;5088189;28;20860;-69
2022/11/14 11:52:56;;;;;;;29.87;15.60;;;7.50;99.90;;;;;;5088000;28;20467;-68
2022/11/14 11:55:27;;;;;;;29.23;15.70;;;7.70;99.90;;;;;;5088138;28;21106;-69
2022/11/14 11:58:06;;;;;;;30.50;16.67;;;7.80;99.90;;;;;;5088422;28;20445;-70
2022/11/14 12:00:33;;;;;;;32.23;15.93;;;8.00;99.90;;;;;;5088933;28;20486;-75
2022/11/14 12:03:01;;;;;;;31.80;17.90;;;8.20;99.90;;;;;;5088281;28;20471;-74
2022/11/14 12:05:37;;;;;;;27.20;16.80;;;9.10;99.90;;;;;;5087651;28;21115;-74
2022/11/14 12:08:08;;;;;;;21.80;14.70;;;10.20;99.90;;;;;;5087857;28;20475;-75
2022/11/14 12:10:39;;;;;;;22.17;12.73;;;11.10;99.90;;;;;;5087985;28;21008;-75
2022/11/14 12:13:46;;;;;;;21.73;13.60;;;11.60;99.90;;;;;;5087994;28;20839;-76
2022/11/14 12:16:25;;;;;;;26.73;14.47;;;11.50;99.90;;;;;;5087889;28;20817;-75
2022/11/14 12:19:23;;;;;;;20.57;13.20;;;11.60;99.90;;;;;;5089074;28;20446;-74
2022/11/14 12:22:17;;;;;;;23.10;12.73;;;11.80;99.90;;;;;;5087963;28;20451;-76
2022/11/14 12:25:08;;;;;;;15.77;11.40;;;12.40;99.90;;;;;;5088638;28;20443;-76
2022/11/14 12:27:48;;;;;;;18.07;12.63;;;12.70;99.90;;;;;;5088291;28;20480;-76
2022/11/14 12:30:18;;;;;;;21.10;12.90;;;12.60;99.90;;;;;;5087559;28;20882;-76
2022/11/14 12:32:50;;;;;;;28.97;14.10;;;12.70;99.90;;;;;;5088330;28;20533;-76
2022/11/14 12:35:22;;;;;;;16.57;11.40;;;12.90;99.90;;;;;;5087612;28;20458;-75
2022/11/14 12:37:52;;;;;;;20.47;13.90;;;12.90;99.90;;;;;;5088079;28;20444;-75
2022/11/14 12:40:24;;;;;;;16.50;12.43;;;12.80;99.90;;;;;;5087277;28;20451;-77
2022/11/14 12:42:51;;;;;;;16.97;11.47;;;12.80;99.90;;;;;;5087771;28;20516;-77
2022/11/14 12:45:56;;;;;;;20.33;12.53;;;12.70;99.90;;;;;;5087503;28;20951;-76
2022/11/14 12:48:30;;;;;;;20.50;13.37;;;12.10;99.90;;;;;;5087529;28;21325;-76
2022/11/14 12:50:58;;;;;;;15.10;10.77;;;11.70;99.90;;;;;;5087495;28;20444;-74